Terminal Aerodrome Forecast
Issued by NWS

Home | Current Version | Previous Version | Text Only | Print | Product List | Glossary On
Versions: 1 2 3 4 5 6 7 8 9 10 11 12 13 14 15 16 17 18 19 20 21 22 23 24 25 26 27 28 29 30 31 32 33 34 35 36 37 38 39 40 41 42 43 44 45 46 47 48 49
000
FTUS41 KCTP 260921 AAA
TAFLNS
TAF AMD
KLNS 260921Z 2609/2706 00000KT P6SM BKN070 OVC090
     FM261200 01010KT 1SM -SN OVC005
     FM261400 36010KT 1/2SM SN OVC003
     FM262300 30010KT 3SM -SN OVC015
     FM270400 26003KT 6SM BR VCSH BKN015 OVC150=

USA.gov is the U.S. government's official web portal to all federal, state and local government web resources and services.